createdAt,value
2018-01-17T00:02:44.943Z,3.30
2018-01-17T00:08:48.374Z,3.03
2018-01-17T00:14:51.829Z,3.07
2018-01-17T00:20:55.276Z,3.17
2018-01-17T00:26:59.123Z,4.00
2018-01-17T00:33:02.596Z,4.47
2018-01-17T00:39:06.017Z,4.53
2018-01-17T00:45:10.274Z,6.53
2018-01-17T00:51:14.479Z,6.80
2018-01-17T00:57:18.074Z,6.87
2018-01-17T01:03:21.627Z,7.83
2018-01-17T01:09:25.493Z,7.50
2018-01-17T01:15:28.975Z,7.67
2018-01-17T01:21:33.203Z,8.10
2018-01-17T01:27:36.649Z,4.60
2018-01-17T01:33:40.188Z,7.40
2018-01-17T01:39:43.660Z,10.00
2018-01-17T01:45:47.171Z,9.60
2018-01-17T01:51:51.404Z,9.87
2018-01-17T01:57:56.017Z,8.10
2018-01-17T02:03:59.569Z,9.00
2018-01-17T02:10:03.798Z,7.87
2018-01-17T02:16:07.258Z,8.90
2018-01-17T02:22:10.693Z,8.47
2018-01-17T02:28:14.153Z,8.60
2018-01-17T02:34:17.676Z,7.57
2018-01-17T02:40:39.747Z,8.50
2018-01-17T02:46:43.322Z,7.20
2018-01-17T02:52:46.758Z,5.80
2018-01-17T02:58:51.100Z,6.33
2018-01-17T03:04:54.835Z,7.07
2018-01-17T03:10:59.118Z,6.07
2018-01-17T03:17:02.667Z,6.40
2018-01-17T03:23:06.228Z,4.60
2018-01-17T03:29:09.668Z,4.80
2018-01-17T03:35:13.228Z,5.30
2018-01-17T03:41:16.934Z,4.60
2018-01-17T03:47:21.207Z,4.30
2018-01-17T03:53:25.538Z,3.83
2018-01-17T03:59:29.029Z,4.70
2018-01-17T04:05:32.478Z,4.13
2018-01-17T04:11:36.038Z,3.83
2018-01-17T04:17:39.492Z,4.37
2018-01-17T04:23:42.938Z,3.87
2018-01-17T04:29:46.447Z,3.90
2018-01-17T04:35:49.890Z,3.70
2018-01-17T04:41:54.002Z,4.93
2018-01-17T04:47:59.072Z,2.33
2018-01-17T04:54:02.528Z,1.83
2018-01-17T05:00:06.187Z,1.30
2018-01-17T05:06:09.823Z,0.90
2018-01-17T05:12:13.303Z,1.60
2018-01-17T05:18:16.795Z,2.30
2018-01-17T05:24:21.012Z,1.60
2018-01-17T05:30:25.528Z,2.73
2018-01-17T05:36:28.957Z,1.73
2018-01-17T05:42:32.425Z,3.03
2018-01-17T05:48:35.862Z,1.90
2018-01-17T05:54:39.389Z,2.20
2018-01-17T06:00:42.887Z,5.13
2018-01-17T06:06:46.356Z,2.70
2018-01-17T06:12:50.576Z,2.13
2018-01-17T06:18:54.131Z,2.10
2018-01-17T06:24:57.999Z,1.70
2018-01-17T06:31:01.499Z,2.20
2018-01-17T06:37:05.729Z,2.80
2018-01-17T06:43:09.379Z,2.30
2018-01-17T06:49:12.854Z,3.10
2018-01-17T06:55:16.307Z,2.57
2018-01-17T07:01:19.801Z,2.90
2018-01-17T07:07:23.303Z,3.20
2018-01-17T07:13:27.226Z,4.40
2018-01-17T07:19:30.696Z,4.47
2018-01-17T07:25:34.178Z,4.97
2018-01-17T07:31:37.655Z,3.80
2018-01-17T07:37:41.906Z,5.07
2018-01-17T07:43:45.379Z,6.00
2018-01-17T07:49:48.825Z,4.23
2018-01-17T07:55:52.277Z,5.40
2018-01-17T08:01:55.875Z,4.77
2018-01-17T08:07:59.385Z,4.20
2018-01-17T08:14:02.900Z,5.20
2018-01-17T08:20:06.381Z,4.33
2018-01-17T08:26:09.858Z,5.87
2018-01-17T08:32:14.796Z,5.47
2018-01-17T08:38:18.234Z,3.83
2018-01-17T08:44:21.663Z,3.40
2018-01-17T08:50:26.272Z,5.13
2018-01-17T08:56:30.155Z,3.50
2018-01-17T09:02:33.601Z,2.87
2018-01-17T09:08:37.083Z,2.83
2018-01-17T09:14:40.803Z,4.20
2018-01-17T09:20:44.261Z,2.70
2018-01-17T09:26:47.872Z,3.27
2018-01-17T09:32:51.335Z,3.90
2018-01-17T09:38:55.809Z,3.30
2018-01-17T09:44:59.644Z,4.53
2018-01-17T09:51:03.129Z,3.93
2018-01-17T09:57:07.379Z,3.50
2018-01-17T10:03:11.679Z,4.17
2018-01-17T10:09:15.896Z,4.63
2018-01-17T10:15:19.434Z,3.47
2018-01-17T10:21:22.900Z,4.33
2018-01-17T10:27:26.639Z,3.83
2018-01-17T10:33:30.098Z,3.60
2018-01-17T10:39:33.948Z,4.93
2018-01-17T10:45:38.131Z,5.97
2018-01-17T10:51:41.587Z,11.47
2018-01-17T10:57:45.045Z,5.83
2018-01-17T11:03:48.506Z,8.17
2018-01-17T11:09:52.076Z,9.40
2018-01-17T11:15:56.966Z,8.23
2018-01-17T11:22:01.648Z,6.60
2018-01-17T11:28:05.104Z,3.10
2018-01-17T11:34:08.629Z,2.27
2018-01-17T11:40:12.084Z,3.33
2018-01-17T11:46:15.542Z,2.13
2018-01-17T11:52:18.975Z,2.47
2018-01-17T11:58:22.434Z,3.23
2018-01-17T12:04:26.100Z,2.47
2018-01-17T12:10:29.553Z,2.40
2018-01-17T12:16:33.013Z,1.97
2018-01-17T12:22:36.461Z,3.27
2018-01-17T12:28:39.926Z,3.70
2018-01-17T12:34:43.424Z,3.20
2018-01-17T12:40:47.639Z,3.07
2018-01-17T12:46:51.114Z,3.70
2018-01-17T12:52:54.618Z,4.90
2018-01-17T12:58:59.161Z,4.03
2018-01-17T13:05:02.612Z,4.10
2018-01-17T13:11:06.048Z,5.30
2018-01-17T13:17:09.534Z,8.10
2018-01-17T13:23:13.758Z,7.43
2018-01-17T13:29:17.238Z,6.23
2018-01-17T13:35:20.643Z,6.57
2018-01-17T13:41:24.116Z,4.07
2018-01-17T13:47:27.635Z,5.97
2018-01-17T13:53:31.282Z,3.47
2018-01-17T13:59:35.579Z,4.10
2018-01-17T14:05:39.203Z,5.90
2018-01-17T14:11:43.553Z,6.47
2018-01-17T14:17:47.098Z,4.77
2018-01-17T14:23:50.608Z,3.10
2018-01-17T14:29:54.934Z,5.07
2018-01-17T14:35:58.998Z,4.03
2018-01-17T14:42:02.625Z,5.17
2018-01-17T14:48:06.088Z,6.90
2018-01-17T14:54:09.544Z,6.10
2018-01-17T15:00:16.403Z,7.37
2018-01-17T15:06:19.850Z,7.10
2018-01-17T15:12:23.308Z,7.70
2018-01-17T15:18:28.170Z,8.33
2018-01-17T15:24:31.768Z,8.20
2018-01-17T15:30:35.279Z,10.33
2018-01-17T15:36:39.502Z,12.73
2018-01-17T15:42:43.709Z,9.30
2018-01-17T15:48:47.157Z,15.87
2018-01-17T15:54:50.590Z,8.63
2018-01-17T16:00:54.071Z,6.40
2018-01-17T16:06:58.234Z,7.33
2018-01-17T16:13:01.825Z,7.60
2018-01-17T16:19:05.264Z,8.37
2018-01-17T16:25:08.698Z,8.70
2018-01-17T16:31:12.155Z,6.70
2018-01-17T16:37:15.627Z,6.37
2018-01-17T16:43:19.163Z,6.03
2018-01-17T16:49:22.799Z,3.07
2018-01-17T16:55:26.915Z,4.10
2018-01-17T17:01:30.380Z,4.10
2018-01-17T17:07:33.832Z,1.53
2018-01-17T17:13:37.298Z,1.93
2018-01-17T17:19:41.095Z,2.57
2018-01-17T17:25:44.517Z,2.30
2018-01-17T17:31:48.757Z,2.10
2018-01-17T17:37:52.173Z,2.93
2018-01-17T17:43:55.662Z,2.50
2018-01-17T17:49:59.335Z,2.30
2018-01-17T17:56:02.796Z,2.30
2018-01-17T18:02:06.262Z,2.57
2018-01-17T18:08:09.714Z,2.90
2018-01-17T18:14:14.210Z,1.60
2018-01-17T18:20:17.714Z,1.87
2018-01-17T18:26:21.285Z,6.37
2018-01-17T18:32:25.479Z,2.80
2018-01-17T18:38:29.080Z,3.30
2018-01-17T18:44:32.610Z,2.70
2018-01-17T18:50:36.047Z,5.00
2018-01-17T18:56:40.258Z,5.27
2018-01-17T19:02:43.747Z,4.73
2018-01-17T19:08:47.191Z,5.87
2018-01-17T19:14:51.490Z,4.13
2018-01-17T19:20:55.962Z,3.40
2018-01-17T19:27:00.262Z,4.30
2018-01-17T19:33:03.703Z,4.90
2018-01-17T19:39:07.168Z,4.67
2018-01-17T19:45:10.659Z,2.73
2018-01-17T19:51:14.128Z,3.37
2018-01-17T19:57:17.596Z,4.87
2018-01-17T20:03:22.209Z,7.70
2018-01-17T20:09:26.036Z,7.13
2018-01-17T20:15:29.600Z,6.13
2018-01-17T20:21:33.857Z,8.67
2018-01-17T20:27:37.322Z,4.47
2018-01-17T20:33:41.006Z,4.67
2018-01-17T20:39:44.518Z,4.13
2018-01-17T20:45:48.062Z,4.90
2018-01-17T20:51:51.593Z,2.97
2018-01-17T20:57:55.495Z,4.70
2018-01-17T21:03:59.724Z,4.47
2018-01-17T21:10:03.242Z,4.83
2018-01-17T21:16:07.459Z,6.60
2018-01-17T21:22:10.904Z,11.20
2018-01-17T21:28:14.337Z,4.93
2018-01-17T21:34:17.778Z,4.80
2018-01-17T21:40:21.208Z,7.70
2018-01-17T21:46:24.843Z,5.10
2018-01-17T21:52:28.536Z,4.67
2018-01-17T21:58:32.759Z,7.40
2018-01-17T22:04:36.218Z,8.47
2018-01-17T22:10:39.694Z,10.80
2018-01-17T22:16:43.265Z,11.17
2018-01-17T22:22:47.465Z,9.57
2018-01-17T22:28:50.872Z,6.27
2018-01-17T22:34:54.512Z,12.00
2018-01-17T22:40:58.609Z,9.30
2018-01-17T22:47:02.830Z,8.73
2018-01-17T22:53:06.278Z,12.07
2018-01-17T22:59:09.741Z,9.70
2018-01-17T23:05:13.186Z,7.57
2018-01-17T23:11:16.644Z,6.67
2018-01-17T23:17:20.189Z,6.30
2018-01-17T23:23:23.878Z,6.40
2018-01-17T23:29:27.381Z,5.60
2018-01-17T23:35:30.929Z,6.33
2018-01-17T23:41:34.369Z,5.77
2018-01-17T23:47:38.574Z,5.73
2018-01-17T23:53:42.080Z,5.37
2018-01-17T23:59:45.550Z,4.93
